sensor_id;sensor_type;location;lat;lon;timestamp;pressure;altitude;pressure_sealevel;temperature;humidity
9139;BME280;4604;48.616;9.548;2023-02-19T00:01:27;97421.16;;;10.66;93.34
9139;BME280;4604;48.616;9.548;2023-02-19T00:03:56;97414.16;;;10.65;93.56
9139;BME280;4604;48.616;9.548;2023-02-19T00:06:25;97409.59;;;10.67;93.14
9139;BME280;4604;48.616;9.548;2023-02-19T00:08:52;97404.94;;;10.70;92.56
9139;BME280;4604;48.616;9.548;2023-02-19T00:11:21;97409.59;;;10.67;92.99
9139;BME280;4604;48.616;9.548;2023-02-19T00:13:49;97408.19;;;10.63;93.49
9139;BME280;4604;48.616;9.548;2023-02-19T00:16:20;97405.03;;;10.69;93.04
9139;BME280;4604;48.616;9.548;2023-02-19T00:18:47;97412.50;;;10.64;93.25
9139;BME280;4604;48.616;9.548;2023-02-19T00:21:14;97401.44;;;10.70;92.75
9139;BME280;4604;48.616;9.548;2023-02-19T00:23:41;97412.25;;;10.67;92.42
9139;BME280;4604;48.616;9.548;2023-02-19T00:26:09;97406.00;;;10.68;92.66
9139;BME280;4604;48.616;9.548;2023-02-19T00:28:36;97404.06;;;10.70;92.24
9139;BME280;4604;48.616;9.548;2023-02-19T00:31:05;97403.34;;;10.68;92.50
9139;BME280;4604;48.616;9.548;2023-02-19T00:33:33;97398.22;;;10.66;92.62
9139;BME280;4604;48.616;9.548;2023-02-19T00:36:01;97398.47;;;10.63;93.10
9139;BME280;4604;48.616;9.548;2023-02-19T00:38:28;97396.00;;;10.50;93.76
9139;BME280;4604;48.616;9.548;2023-02-19T00:40:55;97391.13;;;10.67;92.87
9139;BME280;4604;48.616;9.548;2023-02-19T00:43:21;97390.94;;;10.59;93.30
9139;BME280;4604;48.616;9.548;2023-02-19T00:45:48;97392.59;;;10.60;93.23
9139;BME280;4604;48.616;9.548;2023-02-19T00:48:15;97381.09;;;10.61;93.03
9139;BME280;4604;48.616;9.548;2023-02-19T00:50:43;97385.50;;;10.60;93.38
9139;BME280;4604;48.616;9.548;2023-02-19T00:53:09;97395.44;;;10.47;94.14
9139;BME280;4604;48.616;9.548;2023-02-19T00:55:36;97391.69;;;10.49;94.17
9139;BME280;4604;48.616;9.548;2023-02-19T00:58:03;97390.97;;;10.47;94.40
9139;BME280;4604;48.616;9.548;2023-02-19T01:00:29;97397.31;;;10.56;93.92
9139;BME280;4604;48.616;9.548;2023-02-19T01:02:57;97404.78;;;10.51;94.14
9139;BME280;4604;48.616;9.548;2023-02-19T01:05:24;97412.16;;;10.57;94.03
9139;BME280;4604;48.616;9.548;2023-02-19T01:07:52;97403.81;;;10.52;94.40
9139;BME280;4604;48.616;9.548;2023-02-19T01:10:19;97405.47;;;10.53;94.20
9139;BME280;4604;48.616;9.548;2023-02-19T01:12:45;97406.56;;;10.50;94.38
9139;BME280;4604;48.616;9.548;2023-02-19T01:15:12;97400.09;;;10.43;94.66
9139;BME280;4604;48.616;9.548;2023-02-19T01:17:38;97398.53;;;10.52;94.39
9139;BME280;4604;48.616;9.548;2023-02-19T01:20:05;97390.72;;;10.50;94.84
9139;BME280;4604;48.616;9.548;2023-02-19T01:22:32;97382.94;;;10.49;94.78
9139;BME280;4604;48.616;9.548;2023-02-19T01:25:00;97373.94;;;10.52;94.57
9139;BME280;4604;48.616;9.548;2023-02-19T01:27:27;97362.03;;;10.57;93.99
9139;BME280;4604;48.616;9.548;2023-02-19T01:29:53;97371.50;;;10.60;93.69
9139;BME280;4604;48.616;9.548;2023-02-19T01:32:20;97368.13;;;10.58;93.93
9139;BME280;4604;48.616;9.548;2023-02-19T01:34:46;97373.56;;;10.56;93.86
9139;BME280;4604;48.616;9.548;2023-02-19T01:37:13;97366.28;;;10.48;94.42
9139;BME280;4604;48.616;9.548;2023-02-19T01:39:39;97358.94;;;10.52;94.51
9139;BME280;4604;48.616;9.548;2023-02-19T01:42:12;97356.03;;;10.55;94.40
9139;BME280;4604;48.616;9.548;2023-02-19T01:47:54;97347.94;;;10.47;94.24
9139;BME280;4604;48.616;9.548;2023-02-19T01:50:23;97359.84;;;10.41;95.32
9139;BME280;4604;48.616;9.548;2023-02-19T01:52:52;97358.03;;;10.42;95.11
9139;BME280;4604;48.616;9.548;2023-02-19T01:55:19;97348.19;;;10.44;96.20
9139;BME280;4604;48.616;9.548;2023-02-19T01:57:49;97346.25;;;10.46;97.25
9139;BME280;4604;48.616;9.548;2023-02-19T02:00:18;97350.56;;;10.47;98.26
9139;BME280;4604;48.616;9.548;2023-02-19T02:02:48;97332.53;;;10.31;99.69
9139;BME280;4604;48.616;9.548;2023-02-19T02:05:22;97342.59;;;10.26;100.00
9139;BME280;4604;48.616;9.548;2023-02-19T02:07:49;97336.13;;;10.30;100.00
9139;BME280;4604;48.616;9.548;2023-02-19T02:10:33;97334.81;;;10.24;100.00
9139;BME280;4604;48.616;9.548;2023-02-19T02:13:01;97338.28;;;10.25;100.00
9139;BME280;4604;48.616;9.548;2023-02-19T02:15:37;97337.19;;;10.27;100.00
9139;BME280;4604;48.616;9.548;2023-02-19T02:18:10;97322.84;;;10.20;100.00
9139;BME280;4604;48.616;9.548;2023-02-19T02:20:52;97331.47;;;10.22;100.00
9139;BME280;4604;48.616;9.548;2023-02-19T02:23:30;97342.03;;;10.22;100.00
9139;BME280;4604;48.616;9.548;2023-02-19T02:26:09;97334.56;;;10.27;100.00
9139;BME280;4604;48.616;9.548;2023-02-19T02:29:21;97328.00;;;10.22;100.00
9139;BME280;4604;48.616;9.548;2023-02-19T02:31:55;97339.13;;;10.25;99.37
9139;BME280;4604;48.616;9.548;2023-02-19T02:34:26;97324.00;;;10.27;99.57
9139;BME280;4604;48.616;9.548;2023-02-19T02:36:55;97322.47;;;10.25;98.55
9139;BME280;4604;48.616;9.548;2023-02-19T02:39:24;97327.59;;;10.38;98.49
9139;BME280;4604;48.616;9.548;2023-02-19T02:41:55;97322.31;;;10.26;97.95
9139;BME280;4604;48.616;9.548;2023-02-19T02:44:36;97322.47;;;10.25;97.65
9139;BME280;4604;48.616;9.548;2023-02-19T02:47:05;97322.59;;;10.23;97.74
9139;BME280;4604;48.616;9.548;2023-02-19T02:49:52;97325.81;;;10.27;97.05
9139;BME280;4604;48.616;9.548;2023-02-19T02:52:31;97322.84;;;10.20;96.89
9139;BME280;4604;48.616;9.548;2023-02-19T02:55:16;97321.97;;;10.31;95.38
9139;BME280;4604;48.616;9.548;2023-02-19T02:57:43;97309.66;;;10.32;95.84
9139;BME280;4604;48.616;9.548;2023-02-19T03:00:11;97319.94;;;10.23;96.25
9139;BME280;4604;48.616;9.548;2023-02-19T03:02:41;97309.19;;;10.15;96.64
9139;BME280;4604;48.616;9.548;2023-02-19T03:05:11;97313.84;;;10.23;95.85
9139;BME280;4604;48.616;9.548;2023-02-19T03:08:13;97316.38;;;10.24;95.20
9139;BME280;4604;48.616;9.548;2023-02-19T03:10:43;97304.94;;;10.24;94.97
9139;BME280;4604;48.616;9.548;2023-02-19T03:13:14;97302.47;;;10.22;94.86
9139;BME280;4604;48.616;9.548;2023-02-19T03:16:01;97312.03;;;10.23;94.14
9139;BME280;4604;48.616;9.548;2023-02-19T03:18:53;97304.13;;;10.23;94.07
9139;BME280;4604;48.616;9.548;2023-02-19T03:21:41;97308.44;;;10.24;93.63
9139;BME280;4604;48.616;9.548;2023-02-19T03:24:10;97294.31;;;10.14;93.54
9139;BME280;4604;48.616;9.548;2023-02-19T03:26:57;97291.47;;;10.17;93.51
9139;BME280;4604;48.616;9.548;2023-02-19T03:29:27;97286.47;;;10.24;92.15
9139;BME280;4604;48.616;9.548;2023-02-19T03:31:56;97297.81;;;10.15;93.15
9139;BME280;4604;48.616;9.548;2023-02-19T03:34:29;97295.09;;;10.26;91.61
9139;BME280;4604;48.616;9.548;2023-02-19T03:37:00;97300.19;;;10.29;91.42
9139;BME280;4604;48.616;9.548;2023-02-19T03:39:29;97304.25;;;10.22;91.73
9139;BME280;4604;48.616;9.548;2023-02-19T03:42:00;97299.41;;;10.06;92.83
9139;BME280;4604;48.616;9.548;2023-02-19T03:44:34;97305.66;;;10.05;94.11
9139;BME280;4604;48.616;9.548;2023-02-19T03:47:06;97299.94;;;10.00;94.39
9139;BME280;4604;48.616;9.548;2023-02-19T03:49:41;97297.66;;;9.95;96.14
9139;BME280;4604;48.616;9.548;2023-02-19T03:52:13;97310.97;;;9.94;96.72
9139;BME280;4604;48.616;9.548;2023-02-19T03:54:46;97313.25;;;9.87;96.83
9139;BME280;4604;48.616;9.548;2023-02-19T03:57:19;97308.97;;;9.86;97.87
9139;BME280;4604;48.616;9.548;2023-02-19T03:59:52;97313.63;;;9.82;97.65
9139;BME280;4604;48.616;9.548;2023-02-19T04:02:27;97316.56;;;9.68;100.00
9139;BME280;4604;48.616;9.548;2023-02-19T04:05:02;97338.50;;;9.69;100.00
9139;BME280;4604;48.616;9.548;2023-02-19T04:07:34;97318.25;;;9.58;100.00
9139;BME280;4604;48.616;9.548;2023-02-19T04:10:05;97331.31;;;9.59;100.00
9139;BME280;4604;48.616;9.548;2023-02-19T04:12:33;97332.97;;;9.60;100.00
9139;BME280;4604;48.616;9.548;2023-02-19T04:15:05;97327.41;;;9.42;100.00
9139;BME280;4604;48.616;9.548;2023-02-19T04:17:39;97335.03;;;9.46;100.00
9139;BME280;4604;48.616;9.548;2023-02-19T04:20:09;97327.19;;;9.34;100.00
9139;BME280;4604;48.616;9.548;2023-02-19T04:22:38;97342.88;;;9.25;100.00
9139;BME280;4604;48.616;9.548;2023-02-19T04:25:06;97347.03;;;9.16;100.00
9139;BME280;4604;48.616;9.548;2023-02-19T04:27:35;97345.75;;;9.10;100.00
9139;BME280;4604;48.616;9.548;2023-02-19T04:30:02;97359.84;;;8.98;100.00
9139;BME280;4604;48.616;9.548;2023-02-19T04:32:29;97365.22;;;8.96;100.00
9139;BME280;4604;48.616;9.548;2023-02-19T04:34:56;97364.50;;;8.94;100.00
9139;BME280;4604;48.616;9.548;2023-02-19T04:37:24;97371.56;;;8.94;100.00
9139;BME280;4604;48.616;9.548;2023-02-19T04:39:50;97365.34;;;8.84;100.00
9139;BME280;4604;48.616;9.548;2023-02-19T04:42:17;97368.06;;;8.82;100.00
9139;BME280;4604;48.616;9.548;2023-02-19T04:44:44;97365.34;;;8.84;100.00
9139;BME280;4604;48.616;9.548;2023-02-19T04:47:10;97360.66;;;8.87;100.00
9139;BME280;4604;48.616;9.548;2023-02-19T04:49:37;97350.63;;;8.92;100.00
9139;BME280;4604;48.616;9.548;2023-02-19T04:52:03;97368.81;;;8.84;100.00
9139;BME280;4604;48.616;9.548;2023-02-19T04:54:31;97360.81;;;8.86;100.00
9139;BME280;4604;48.616;9.548;2023-02-19T04:56:58;97368.41;;;8.77;100.00
9139;BME280;4604;48.616;9.548;2023-02-19T04:59:24;97375.13;;;8.82;100.00
9139;BME280;4604;48.616;9.548;2023-02-19T05:01:51;97367.97;;;8.84;100.00
9139;BME280;4604;48.616;9.548;2023-02-19T05:04:18;97372.50;;;8.82;100.00
9139;BME280;4604;48.616;9.548;2023-02-19T05:06:45;97367.00;;;8.85;100.00
9139;BME280;4604;48.616;9.548;2023-02-19T05:09:11;97375.88;;;8.84;100.00
9139;BME280;4604;48.616;9.548;2023-02-19T05:11:39;97381.38;;;8.81;100.00
9139;BME280;4604;48.616;9.548;2023-02-19T05:14:06;97383.28;;;8.90;100.00
9139;BME280;4604;48.616;9.548;2023-02-19T05:16:33;97394.88;;;8.87;100.00
9139;BME280;4604;48.616;9.548;2023-02-19T05:18:59;97384.97;;;8.91;100.00
9139;BME280;4604;48.616;9.548;2023-02-19T05:21:26;97378.16;;;8.99;100.00
9139;BME280;4604;48.616;9.548;2023-02-19T05:23:52;97381.63;;;9.00;100.00
9139;BME280;4604;48.616;9.548;2023-02-19T05:26:21;97380.28;;;8.94;100.00
9139;BME280;4604;48.616;9.548;2023-02-19T05:28:51;97371.47;;;8.95;100.00
9139;BME280;4604;48.616;9.548;2023-02-19T05:31:18;97384.69;;;8.83;100.00
9139;BME280;4604;48.616;9.548;2023-02-19T05:33:45;97374.06;;;8.84;100.00
9139;BME280;4604;48.616;9.548;2023-02-19T05:36:16;97392.25;;;8.87;100.00
9139;BME280;4604;48.616;9.548;2023-02-19T05:38:43;97387.72;;;8.89;100.00
9139;BME280;4604;48.616;9.548;2023-02-19T05:41:11;97385.81;;;8.91;100.00
9139;BME280;4604;48.616;9.548;2023-02-19T05:43:38;97388.53;;;8.90;100.00
9139;BME280;4604;48.616;9.548;2023-02-19T05:46:07;97380.50;;;8.80;100.00
9139;BME280;4604;48.616;9.548;2023-02-19T05:48:34;97383.03;;;8.82;100.00
9139;BME280;4604;48.616;9.548;2023-02-19T05:51:01;97385.06;;;8.78;100.00
9139;BME280;4604;48.616;9.548;2023-02-19T05:53:28;97385.44;;;8.85;100.00
9139;BME280;4604;48.616;9.548;2023-02-19T05:55:55;97382.78;;;8.85;100.00
9139;BME280;4604;48.616;9.548;2023-02-19T05:58:22;97391.16;;;8.90;100.00
9139;BME280;4604;48.616;9.548;2023-02-19T06:00:48;97391.31;;;8.88;100.00
9139;BME280;4604;48.616;9.548;2023-02-19T06:03:16;97395.25;;;8.94;100.00
9139;BME280;4604;48.616;9.548;2023-02-19T06:05:43;97403.25;;;8.92;100.00
9139;BME280;4604;48.616;9.548;2023-02-19T06:08:11;97395.59;;;8.89;100.00
9139;BME280;4604;48.616;9.548;2023-02-19T06:10:38;97391.91;;;8.92;100.00
9139;BME280;4604;48.616;9.548;2023-02-19T06:13:06;97409.28;;;9.06;100.00
9139;BME280;4604;48.616;9.548;2023-02-19T06:15:32;97414.66;;;8.93;100.00
9139;BME280;4604;48.616;9.548;2023-02-19T06:17:59;97424.81;;;8.86;100.00
9139;BME280;4604;48.616;9.548;2023-02-19T06:20:28;97426.72;;;8.84;100.00
9139;BME280;4604;48.616;9.548;2023-02-19T06:22:54;97417.25;;;8.82;100.00
9139;BME280;4604;48.616;9.548;2023-02-19T06:25:21;97421.81;;;8.91;100.00
9139;BME280;4604;48.616;9.548;2023-02-19T06:27:47;97433.88;;;8.82;100.00
9139;BME280;4604;48.616;9.548;2023-02-19T06:30:14;97433.16;;;8.80;100.00
9139;BME280;4604;48.616;9.548;2023-02-19T06:32:41;97441.53;;;8.74;100.00
9139;BME280;4604;48.616;9.548;2023-02-19T06:35:07;97430.88;;;8.75;100.00
9139;BME280;4604;48.616;9.548;2023-02-19T06:37:35;97443.06;;;8.76;100.00
9139;BME280;4604;48.616;9.548;2023-02-19T06:40:02;97461.91;;;8.59;100.00
9139;BME280;4604;48.616;9.548;2023-02-19T06:42:30;97454.97;;;8.58;100.00
9139;BME280;4604;48.616;9.548;2023-02-19T06:44:57;97460.22;;;8.58;100.00
9139;BME280;4604;48.616;9.548;2023-02-19T06:47:23;97462.69;;;8.48;100.00
9139;BME280;4604;48.616;9.548;2023-02-19T06:49:50;97466.06;;;8.50;100.00
9139;BME280;4604;48.616;9.548;2023-02-19T06:52:17;97483.75;;;8.48;100.00
9139;BME280;4604;48.616;9.548;2023-02-19T06:54:45;97484.69;;;8.47;100.00
9139;BME280;4604;48.616;9.548;2023-02-19T06:57:12;97503.63;;;8.52;100.00
9139;BME280;4604;48.616;9.548;2023-02-19T06:59:38;97503.75;;;8.38;100.00
9139;BME280;4604;48.616;9.548;2023-02-19T07:02:05;97523.50;;;8.56;100.00
9139;BME280;4604;48.616;9.548;2023-02-19T07:04:32;97517.34;;;8.45;100.00
9139;BME280;4604;48.616;9.548;2023-02-19T07:06:59;97528.25;;;8.39;100.00
9139;BME280;4604;48.616;9.548;2023-02-19T07:09:26;97535.19;;;8.52;100.00
9139;BME280;4604;48.616;9.548;2023-02-19T07:11:54;97526.06;;;8.45;100.00
9139;BME280;4604;48.616;9.548;2023-02-19T07:14:20;97529.53;;;8.46;100.00
9139;BME280;4604;48.616;9.548;2023-02-19T07:16:47;97525.13;;;8.46;100.00
9139;BME280;4604;48.616;9.548;2023-02-19T07:19:14;97527.97;;;8.43;100.00
9139;BME280;4604;48.616;9.548;2023-02-19T07:21:41;97535.75;;;8.45;100.00
9139;BME280;4604;48.616;9.548;2023-02-19T07:24:08;97531.81;;;8.50;100.00
9139;BME280;4604;48.616;9.548;2023-02-19T07:26:35;97550.03;;;8.53;100.00
9139;BME280;4604;48.616;9.548;2023-02-19T07:29:03;97549.06;;;8.54;100.00
9139;BME280;4604;48.616;9.548;2023-02-19T07:31:30;97548.44;;;8.51;100.00
9139;BME280;4604;48.616;9.548;2023-02-19T07:33:56;97553.69;;;8.64;100.00
9139;BME280;4604;48.616;9.548;2023-02-19T07:36:23;97553.69;;;8.64;100.00
9139;BME280;4604;48.616;9.548;2023-02-19T07:38:53;97551.59;;;8.56;100.00
9139;BME280;4604;48.616;9.548;2023-02-19T07:41:20;97564.84;;;8.54;100.00
9139;BME280;4604;48.616;9.548;2023-02-19T07:43:47;97557.28;;;8.50;100.00
9139;BME280;4604;48.616;9.548;2023-02-19T07:46:15;97556.22;;;8.52;100.00
9139;BME280;4604;48.616;9.548;2023-02-19T07:48:42;97560.19;;;8.58;100.00
9139;BME280;4604;48.616;9.548;2023-02-19T07:51:11;97554.00;;;8.59;100.00
9139;BME280;4604;48.616;9.548;2023-02-19T07:53:40;97558.88;;;8.52;100.00
9139;BME280;4604;48.616;9.548;2023-02-19T07:56:09;97561.41;;;8.54;100.00
9139;BME280;4604;48.616;9.548;2023-02-19T07:58:36;97564.81;;;8.67;100.00
9139;BME280;4604;48.616;9.548;2023-02-19T08:01:08;97558.94;;;8.64;100.00
9139;BME280;4604;48.616;9.548;2023-02-19T08:03:37;97551.47;;;8.57;100.00
9139;BME280;4604;48.616;9.548;2023-02-19T08:06:03;97561.16;;;8.57;100.00
9139;BME280;4604;48.616;9.548;2023-02-19T08:08:30;97563.78;;;8.57;100.00
9139;BME280;4604;48.616;9.548;2023-02-19T08:11:00;97554.09;;;8.57;100.00
9139;BME280;4604;48.616;9.548;2023-02-19T08:13:47;97558.31;;;8.60;100.00
9139;BME280;4604;48.616;9.548;2023-02-19T08:16:14;97565.88;;;8.65;100.00
9139;BME280;4604;48.616;9.548;2023-02-19T08:18:43;97552.63;;;8.66;100.00
9139;BME280;4604;48.616;9.548;2023-02-19T08:21:10;97556.31;;;8.64;97.88
9139;BME280;4604;48.616;9.548;2023-02-19T08:23:37;97555.28;;;8.77;95.87
9139;BME280;4604;48.616;9.548;2023-02-19T08:26:07;97561.56;;;8.64;97.32
9139;BME280;4604;48.616;9.548;2023-02-19T08:28:34;97574.59;;;8.65;97.37
9139;BME280;4604;48.616;9.548;2023-02-19T08:31:02;97562.22;;;8.54;98.64
9139;BME280;4604;48.616;9.548;2023-02-19T08:33:29;97565.03;;;8.64;100.00
9139;BME280;4604;48.616;9.548;2023-02-19T08:36:00;97575.72;;;8.74;100.00
9139;BME280;4604;48.616;9.548;2023-02-19T08:38:29;97578.13;;;8.77;96.14
9139;BME280;4604;48.616;9.548;2023-02-19T08:40:56;97597.72;;;8.73;96.18
9139;BME280;4604;48.616;9.548;2023-02-19T08:43:22;97598.84;;;8.82;95.03
9139;BME280;4604;48.616;9.548;2023-02-19T08:45:51;97601.38;;;8.83;91.91
9139;BME280;4604;48.616;9.548;2023-02-19T08:48:18;97615.16;;;8.87;93.21
9139;BME280;4604;48.616;9.548;2023-02-19T08:50:52;97597.13;;;8.93;91.97
9139;BME280;4604;48.616;9.548;2023-02-19T08:53:20;97611.91;;;9.07;92.31
9139;BME280;4604;48.616;9.548;2023-02-19T08:55:47;97612.47;;;8.99;93.27
9139;BME280;4604;48.616;9.548;2023-02-19T08:58:13;97613.03;;;8.92;93.62
9139;BME280;4604;48.616;9.548;2023-02-19T09:00:40;97616.84;;;8.88;95.65
9139;BME280;4604;48.616;9.548;2023-02-19T09:03:06;97629.38;;;8.84;97.27
9139;BME280;4604;48.616;9.548;2023-02-19T09:05:33;97629.84;;;8.65;99.40
9139;BME280;4604;48.616;9.548;2023-02-19T09:08:00;97648.50;;;8.62;100.00
9139;BME280;4604;48.616;9.548;2023-02-19T09:10:28;97651.53;;;8.69;100.00
9139;BME280;4604;48.616;9.548;2023-02-19T09:12:54;97647.25;;;8.55;100.00
9139;BME280;4604;48.616;9.548;2023-02-19T09:15:21;97635.97;;;8.66;100.00
9139;BME280;4604;48.616;9.548;2023-02-19T09:17:50;97632.06;;;8.71;100.00
9139;BME280;4604;48.616;9.548;2023-02-19T09:20:17;97640.88;;;8.83;100.00
9139;BME280;4604;48.616;9.548;2023-02-19T09:22:44;97630.53;;;8.80;100.00
9139;BME280;4604;48.616;9.548;2023-02-19T09:25:11;97631.25;;;8.95;100.00
9139;BME280;4604;48.616;9.548;2023-02-19T09:27:39;97639.56;;;8.89;100.00
9139;BME280;4604;48.616;9.548;2023-02-19T09:30:06;97641.97;;;8.92;99.26
9139;BME280;4604;48.616;9.548;2023-02-19T09:32:33;97646.25;;;9.06;97.90
9139;BME280;4604;48.616;9.548;2023-02-19T09:35:00;97659.97;;;8.98;98.37
9139;BME280;4604;48.616;9.548;2023-02-19T09:37:27;97648.25;;;9.02;98.53
9139;BME280;4604;48.616;9.548;2023-02-19T09:39:54;97659.59;;;9.15;96.85
9139;BME280;4604;48.616;9.548;2023-02-19T09:42:22;97655.06;;;9.17;95.03
9139;BME280;4604;48.616;9.548;2023-02-19T09:44:53;97668.72;;;9.23;95.44
9139;BME280;4604;48.616;9.548;2023-02-19T09:47:22;97668.50;;;9.26;94.55
9139;BME280;4604;48.616;9.548;2023-02-19T09:49:51;97668.81;;;9.21;94.06
9139;BME280;4604;48.616;9.548;2023-02-19T09:52:25;97682.81;;;9.21;94.44
9139;BME280;4604;48.616;9.548;2023-02-19T09:54:56;97676.44;;;9.13;90.08
9139;BME280;4604;48.616;9.548;2023-02-19T09:57:25;97679.09;;;9.13;88.23
9139;BME280;4604;48.616;9.548;2023-02-19T10:00:00;97668.56;;;9.37;89.14
9139;BME280;4604;48.616;9.548;2023-02-19T10:02:29;97697.88;;;9.32;87.68
9139;BME280;4604;48.616;9.548;2023-02-19T10:04:56;97689.88;;;9.45;87.04
9139;BME280;4604;48.616;9.548;2023-02-19T10:07:25;97700.50;;;9.56;87.23
9139;BME280;4604;48.616;9.548;2023-02-19T10:09:58;97677.03;;;9.64;86.05
9139;BME280;4604;48.616;9.548;2023-02-19T10:12:30;97701.56;;;9.54;84.93
9139;BME280;4604;48.616;9.548;2023-02-19T10:15:00;97696.72;;;9.48;84.74
9139;BME280;4604;48.616;9.548;2023-02-19T10:17:31;97689.22;;;9.54;84.89
9139;BME280;4604;48.616;9.548;2023-02-19T10:20:00;97695.13;;;9.69;84.57
9139;BME280;4604;48.616;9.548;2023-02-19T10:22:29;97696.75;;;9.83;83.49
9139;BME280;4604;48.616;9.548;2023-02-19T10:24:57;97689.19;;;9.90;83.24
9139;BME280;4604;48.616;9.548;2023-02-19T10:27:26;97686.09;;;9.96;81.16
9139;BME280;4604;48.616;9.548;2023-02-19T10:29:55;97698.91;;;9.89;79.68
9139;BME280;4604;48.616;9.548;2023-02-19T10:32:25;97691.34;;;9.84;78.40
9139;BME280;4604;48.616;9.548;2023-02-19T10:35:09;97697.59;;;9.83;78.06
9139;BME280;4604;48.616;9.548;2023-02-19T10:37:41;97699.59;;;9.80;74.56
9139;BME280;4604;48.616;9.548;2023-02-19T10:40:14;97705.44;;;9.72;74.77
9139;BME280;4604;48.616;9.548;2023-02-19T10:42:45;97695.88;;;9.82;75.50
9139;BME280;4604;48.616;9.548;2023-02-19T10:45:18;97704.28;;;9.76;72.46
9139;BME280;4604;48.616;9.548;2023-02-19T10:47:47;97704.28;;;9.76;73.28
9139;BME280;4604;48.616;9.548;2023-02-19T10:50:18;97701.53;;;9.89;74.29
9139;BME280;4604;48.616;9.548;2023-02-19T10:52:51;97701.53;;;9.89;72.18
9139;BME280;4604;48.616;9.548;2023-02-19T10:55:26;97689.44;;;9.86;72.42
9139;BME280;4604;48.616;9.548;2023-02-19T10:57:53;97685.72;;;9.89;71.00
9139;BME280;4604;48.616;9.548;2023-02-19T11:00:23;97683.06;;;9.78;71.46
9139;BME280;4604;48.616;9.548;2023-02-19T11:03:12;97684.06;;;9.88;71.58
9139;BME280;4604;48.616;9.548;2023-02-19T11:05:49;97681.53;;;9.86;70.23
9139;BME280;4604;48.616;9.548;2023-02-19T11:08:20;97677.72;;;10.02;71.72
9139;BME280;4604;48.616;9.548;2023-02-19T11:10:48;97682.34;;;10.34;71.61
9139;BME280;4604;48.616;9.548;2023-02-19T11:13:23;97664.84;;;10.33;70.78
9139;BME280;4604;48.616;9.548;2023-02-19T11:15:53;97674.78;;;10.40;71.68
9139;BME280;4604;48.616;9.548;2023-02-19T11:18:23;97673.94;;;10.28;72.01
9139;BME280;4604;48.616;9.548;2023-02-19T11:20:52;97669.38;;;10.53;72.51
9139;BME280;4604;48.616;9.548;2023-02-19T11:23:24;97672.03;;;10.64;73.54
9139;BME280;4604;48.616;9.548;2023-02-19T11:25:52;97655.34;;;10.75;71.49
9139;BME280;4604;48.616;9.548;2023-02-19T11:28:27;97688.22;;;10.82;69.86
9139;BME280;4604;48.616;9.548;2023-02-19T11:31:12;97666.13;;;10.83;71.27
9139;BME280;4604;48.616;9.548;2023-02-19T11:33:44;97666.00;;;10.85;70.19
9139;BME280;4604;48.616;9.548;2023-02-19T11:36:31;97668.91;;;10.82;70.49
9139;BME280;4604;48.616;9.548;2023-02-19T11:39:20;97680.44;;;10.69;70.87
9139;BME280;4604;48.616;9.548;2023-02-19T11:42:06;97687.63;;;10.67;72.18
9139;BME280;4604;48.616;9.548;2023-02-19T11:44:44;97654.50;;;10.86;70.65
9139;BME280;4604;48.616;9.548;2023-02-19T11:47:31;97663.50;;;10.72;68.76
9139;BME280;4604;48.616;9.548;2023-02-19T11:50:14;97672.81;;;10.99;67.37
9139;BME280;4604;48.616;9.548;2023-02-19T11:52:51;97671.38;;;10.95;67.22
9139;BME280;4604;48.616;9.548;2023-02-19T11:55:28;97675.00;;;10.82;67.82
9139;BME280;4604;48.616;9.548;2023-02-19T11:58:05;97696.53;;;10.66;68.57
9139;BME280;4604;48.616;9.548;2023-02-19T12:00:45;97703.13;;;10.49;70.18
9139;BME280;4604;48.616;9.548;2023-02-19T12:03:42;97704.44;;;10.44;71.36
9139;BME280;4604;48.616;9.548;2023-02-19T12:06:27;97712.56;;;10.41;71.15
9139;BME280;4604;48.616;9.548;2023-02-19T12:09:17;97721.47;;;10.51;70.60
9139;BME280;4604;48.616;9.548;2023-02-19T12:11:55;97729.38;;;10.40;71.99
9139;BME280;4604;48.616;9.548;2023-02-19T12:14:51;97715.69;;;10.35;70.59
9139;BME280;4604;48.616;9.548;2023-02-19T12:17:41;97746.03;;;10.29;69.80
9139;BME280;4604;48.616;9.548;2023-02-19T12:20:18;97756.19;;;10.22;70.19
9139;BME280;4604;48.616;9.548;2023-02-19T12:22:56;97747.50;;;10.09;68.72
9139;BME280;4604;48.616;9.548;2023-02-19T12:25:37;97732.16;;;10.03;69.89
9139;BME280;4604;48.616;9.548;2023-02-19T12:28:40;97714.06;;;10.10;69.96
9139;BME280;4604;48.616;9.548;2023-02-19T12:31:23;97706.53;;;10.27;69.23
9139;BME280;4604;48.616;9.548;2023-02-19T12:34:25;97698.44;;;10.42;69.19
9139;BME280;4604;48.616;9.548;2023-02-19T12:37:02;97705.28;;;10.44;68.67
9139;BME280;4604;48.616;9.548;2023-02-19T12:39:41;97695.78;;;10.31;68.45
9139;BME280;4604;48.616;9.548;2023-02-19T12:42:17;97701.25;;;10.16;68.37
9139;BME280;4604;48.616;9.548;2023-02-19T12:44:47;97711.44;;;10.21;67.59
9139;BME280;4604;48.616;9.548;2023-02-19T12:47:19;97686.78;;;10.33;67.77
9139;BME280;4604;48.616;9.548;2023-02-19T12:49:49;97687.75;;;10.32;67.19
9139;BME280;4604;48.616;9.548;2023-02-19T12:52:20;97688.72;;;10.54;67.22
9139;BME280;4604;48.616;9.548;2023-02-19T12:54:52;97694.34;;;10.60;65.97
9139;BME280;4604;48.616;9.548;2023-02-19T12:57:22;97698.91;;;10.69;63.37
9139;BME280;4604;48.616;9.548;2023-02-19T12:59:53;97696.53;;;10.44;63.96
9139;BME280;4604;48.616;9.548;2023-02-19T13:02:26;97719.19;;;10.35;65.00
9139;BME280;4604;48.616;9.548;2023-02-19T13:04:58;97673.47;;;10.35;66.04
9139;BME280;4604;48.616;9.548;2023-02-19T13:07:30;97674.91;;;10.50;65.83
9139;BME280;4604;48.616;9.548;2023-02-19T13:10:21;97679.47;;;10.82;63.83
9139;BME280;4604;48.616;9.548;2023-02-19T13:12:50;97689.75;;;10.85;62.39
9139;BME280;4604;48.616;9.548;2023-02-19T13:15:28;97688.56;;;10.78;62.63
9139;BME280;4604;48.616;9.548;2023-02-19T13:17:59;97672.84;;;10.87;63.13
9139;BME280;4604;48.616;9.548;2023-02-19T13:20:30;97694.47;;;10.70;62.91
9139;BME280;4604;48.616;9.548;2023-02-19T13:23:01;97685.94;;;10.55;63.58
9139;BME280;4604;48.616;9.548;2023-02-19T13:26:09;97696.03;;;10.50;63.11
9139;BME280;4604;48.616;9.548;2023-02-19T13:28:50;97708.88;;;10.32;63.10
9139;BME280;4604;48.616;9.548;2023-02-19T13:31:37;97690.25;;;10.34;63.59
9139;BME280;4604;48.616;9.548;2023-02-19T13:34:15;97692.53;;;10.38;63.94
9139;BME280;4604;48.616;9.548;2023-02-19T13:36:43;97692.88;;;10.22;64.18
9139;BME280;4604;48.616;9.548;2023-02-19T13:39:12;97695.00;;;10.06;64.75
9139;BME280;4604;48.616;9.548;2023-02-19T13:41:48;97692.25;;;10.07;64.51
9139;BME280;4604;48.616;9.548;2023-02-19T13:44:17;97694.66;;;10.11;64.67
9139;BME280;4604;48.616;9.548;2023-02-19T13:46:46;97702.44;;;10.23;64.05
9139;BME280;4604;48.616;9.548;2023-02-19T13:49:40;97685.31;;;10.18;62.99